createdAt,value
2022-11-30T00:00:18.188Z,96.85
2022-11-30T00:05:20.958Z,97.15
2022-11-30T00:10:23.607Z,97.50
2022-11-30T00:15:25.302Z,96.59
2022-11-30T00:20:29.704Z,96.81
2022-11-30T00:25:31.381Z,97.34
2022-11-30T00:30:33.076Z,96.59
2022-11-30T00:35:34.767Z,96.93
2022-11-30T00:40:36.428Z,97.96
2022-11-30T00:45:38.089Z,97.88
2022-11-30T00:50:39.789Z,97.27
2022-11-30T00:55:43.569Z,96.78
2022-11-30T01:00:45.515Z,96.02
2022-11-30T01:05:47.333Z,96.90
2022-11-30T01:10:53.392Z,97.31
2022-11-30T01:15:55.156Z,97.55
2022-11-30T01:20:56.961Z,96.41
2022-11-30T01:25:58.660Z,95.96
2022-11-30T01:31:02.691Z,96.09
2022-11-30T01:36:13.785Z,97.27
2022-11-30T01:41:20.050Z,97.70
2022-11-30T01:46:27.520Z,97.87
2022-11-30T01:51:34.190Z,97.95
2022-11-30T01:56:37.852Z,99.05
2022-11-30T02:01:39.552Z,99.59
2022-11-30T02:06:42.185Z,99.63
2022-11-30T02:11:43.937Z,100.00
2022-11-30T02:17:05.536Z,99.67
2022-11-30T02:22:33.620Z,99.16
2022-11-30T02:27:53.645Z,99.24
2022-11-30T02:33:07.283Z,100.00
2022-11-30T02:38:10.428Z,100.00
2022-11-30T02:43:12.139Z,100.00
2022-11-30T02:48:17.281Z,100.00
2022-11-30T02:53:19.972Z,100.00
2022-11-30T02:58:22.365Z,100.00
2022-11-30T03:03:24.074Z,100.00
2022-11-30T03:08:25.823Z,100.00
2022-11-30T03:13:27.496Z,100.00
2022-11-30T03:18:29.152Z,100.00
2022-11-30T03:23:30.860Z,100.00
2022-11-30T03:28:32.651Z,100.00
2022-11-30T03:33:34.332Z,100.00
2022-11-30T03:38:36.639Z,100.00
2022-11-30T03:43:38.355Z,100.00
2022-11-30T03:48:43.235Z,100.00
2022-11-30T03:53:45.085Z,100.00
2022-11-30T03:58:46.796Z,100.00
2022-11-30T04:03:49.282Z,100.00
2022-11-30T04:08:50.967Z,100.00
2022-11-30T04:13:52.636Z,100.00
2022-11-30T04:18:54.342Z,100.00
2022-11-30T04:23:56.006Z,100.00
2022-11-30T04:28:57.676Z,100.00
2022-11-30T04:33:59.469Z,100.00
2022-11-30T04:39:01.148Z,100.00
2022-11-30T04:44:02.839Z,100.00
2022-11-30T04:49:04.664Z,100.00
2022-11-30T04:54:06.450Z,100.00
2022-11-30T04:59:08.124Z,100.00
2022-11-30T05:04:09.846Z,100.00
2022-11-30T05:09:11.529Z,100.00
2022-11-30T05:14:13.226Z,100.00
2022-11-30T05:19:15.549Z,100.00
2022-11-30T05:24:17.261Z,100.00
2022-11-30T05:29:18.939Z,100.00
2022-11-30T05:34:20.662Z,100.00
2022-11-30T05:39:22.329Z,100.00
2022-11-30T05:44:24.007Z,100.00
2022-11-30T05:49:25.684Z,100.00
2022-11-30T05:54:27.443Z,100.00
2022-11-30T05:59:29.111Z,100.00
2022-11-30T06:04:30.874Z,100.00
2022-11-30T06:09:32.550Z,100.00
2022-11-30T06:14:34.225Z,100.00
2022-11-30T06:19:35.890Z,100.00
2022-11-30T06:24:37.599Z,100.00
2022-11-30T06:29:39.279Z,100.00
2022-11-30T06:34:40.941Z,100.00
2022-11-30T06:40:05.291Z,100.00
2022-11-30T06:45:05.794Z,100.00
2022-11-30T06:50:08.369Z,100.00
2022-11-30T06:55:11.039Z,100.00
2022-11-30T07:00:13.470Z,100.00
2022-11-30T07:05:15.189Z,100.00
2022-11-30T07:10:20.118Z,100.00
2022-11-30T07:15:22.130Z,100.00
2022-11-30T07:20:23.793Z,100.00
2022-11-30T07:25:44.113Z,100.00
2022-11-30T07:30:45.780Z,100.00
2022-11-30T07:35:47.460Z,100.00
2022-11-30T07:40:49.154Z,100.00
2022-11-30T07:45:54.032Z,100.00
2022-11-30T07:51:02.321Z,100.00
2022-11-30T07:56:05.794Z,98.60
2022-11-30T08:01:12.916Z,97.06
2022-11-30T08:06:19.899Z,95.52
2022-11-30T08:11:24.354Z,93.65
2022-11-30T08:16:28.845Z,91.94
2022-11-30T08:21:32.442Z,90.10
2022-11-30T08:26:34.475Z,92.36
2022-11-30T08:31:37.772Z,92.92
2022-11-30T08:36:40.716Z,96.35
2022-11-30T08:41:42.422Z,97.78
2022-11-30T08:46:52.383Z,97.08
2022-11-30T08:57:20.361Z,96.05
2022-11-30T09:02:22.074Z,95.98
2022-11-30T09:07:23.777Z,93.07
2022-11-30T09:12:25.460Z,92.31
2022-11-30T09:17:27.150Z,90.78
2022-11-30T09:22:28.919Z,88.00
2022-11-30T09:27:34.211Z,85.01
2022-11-30T09:32:35.883Z,82.58
2022-11-30T09:37:38.888Z,83.00
2022-11-30T09:43:20.789Z,82.10
2022-11-30T09:48:27.261Z,80.73
2022-11-30T09:53:40.493Z,80.93
2022-11-30T09:58:49.447Z,77.99
2022-11-30T10:03:51.300Z,72.58
2022-11-30T10:09:07.942Z,69.31
2022-11-30T10:14:35.500Z,73.33
2022-11-30T10:20:01.730Z,76.56
2022-11-30T10:25:08.626Z,76.84
2022-11-30T10:30:25.370Z,76.55
2022-11-30T10:35:43.374Z,74.76
2022-11-30T10:40:58.893Z,70.15
2022-11-30T10:46:00.694Z,63.67
2022-11-30T10:51:03.679Z,62.77
2022-11-30T10:56:12.241Z,56.80
2022-11-30T11:01:35.957Z,54.82
2022-11-30T11:06:44.133Z,58.52
2022-11-30T11:11:45.980Z,60.40
2022-11-30T11:16:51.964Z,56.88
2022-11-30T11:21:53.951Z,58.24
2022-11-30T11:26:57.143Z,59.45
2022-11-30T11:32:27.231Z,62.59
2022-11-30T11:37:31.127Z,62.08
2022-11-30T11:42:42.482Z,61.34
2022-11-30T11:47:46.300Z,64.14
2022-11-30T11:52:49.890Z,67.01
2022-11-30T11:58:02.387Z,67.23
2022-11-30T12:03:19.211Z,62.36
2022-11-30T12:08:55.142Z,65.52
2022-11-30T12:13:56.869Z,63.16
2022-11-30T12:19:16.144Z,66.76
2022-11-30T12:24:26.691Z,67.53
2022-11-30T12:30:09.982Z,67.54
2022-11-30T12:35:45.598Z,68.77
2022-11-30T12:41:02.423Z,68.96
2022-11-30T12:46:14.963Z,68.79
2022-11-30T12:51:30.159Z,70.60
2022-11-30T12:57:01.467Z,72.67
2022-11-30T13:02:22.222Z,73.16
2022-11-30T13:07:38.359Z,74.73
2022-11-30T13:12:47.115Z,75.41
2022-11-30T13:17:50.135Z,75.24
2022-11-30T13:23:34.056Z,75.72
2022-11-30T13:28:41.882Z,75.91
2022-11-30T13:33:49.038Z,71.05
2022-11-30T13:39:14.000Z,67.38
2022-11-30T13:44:37.265Z,67.80
2022-11-30T13:49:38.995Z,68.32
2022-11-30T13:54:50.431Z,70.78
2022-11-30T13:59:54.572Z,69.28
2022-11-30T14:05:21.503Z,71.33
2022-11-30T14:10:36.090Z,74.43
2022-11-30T14:15:42.075Z,77.06
2022-11-30T14:21:16.412Z,76.56
2022-11-30T14:26:24.552Z,75.55
2022-11-30T14:31:30.517Z,77.52
2022-11-30T14:36:41.610Z,78.07
2022-11-30T14:41:43.291Z,79.58
2022-11-30T14:46:45.104Z,79.26
2022-11-30T14:52:05.595Z,81.95
2022-11-30T14:57:22.684Z,81.63
2022-11-30T15:02:38.656Z,82.36
2022-11-30T15:07:42.993Z,83.50
2022-11-30T15:12:45.943Z,83.69
2022-11-30T15:17:51.074Z,84.61
2022-11-30T15:22:54.902Z,84.08
2022-11-30T15:27:58.564Z,83.73
2022-11-30T15:33:00.311Z,84.47
2022-11-30T15:38:08.414Z,84.72
2022-11-30T15:43:22.006Z,85.11
2022-11-30T15:48:49.214Z,85.24
2022-11-30T15:53:51.911Z,83.86
2022-11-30T15:59:24.187Z,86.33
2022-11-30T16:04:25.898Z,85.90
2022-11-30T16:09:32.619Z,85.12
2022-11-30T16:14:34.313Z,85.38
2022-11-30T16:19:36.009Z,86.37
2022-11-30T16:24:37.682Z,84.45
2022-11-30T16:29:39.344Z,84.60
2022-11-30T16:34:41.576Z,82.32
2022-11-30T16:39:43.406Z,82.74
2022-11-30T16:44:45.084Z,82.68
2022-11-30T16:49:47.154Z,82.19
2022-11-30T16:54:49.024Z,81.93
2022-11-30T16:59:50.679Z,82.27
2022-11-30T17:04:52.388Z,83.03
2022-11-30T17:09:54.062Z,84.25
2022-11-30T17:14:56.003Z,81.54
2022-11-30T17:19:57.822Z,83.04
2022-11-30T17:24:59.624Z,84.81
2022-11-30T17:30:01.400Z,82.79
2022-11-30T17:35:03.515Z,86.92
2022-11-30T17:40:07.064Z,86.18
2022-11-30T17:45:09.348Z,88.38
2022-11-30T17:50:11.437Z,87.31
2022-11-30T17:55:13.097Z,86.40
2022-11-30T18:00:15.493Z,86.07
2022-11-30T18:05:17.226Z,87.93
2022-11-30T18:10:19.102Z,88.04
2022-11-30T18:15:20.755Z,87.45
2022-11-30T18:20:22.840Z,89.44
2022-11-30T18:25:24.718Z,88.83
2022-11-30T18:30:26.663Z,88.02
2022-11-30T18:35:28.766Z,88.30
2022-11-30T18:40:30.452Z,88.28
2022-11-30T18:45:35.816Z,88.84
2022-11-30T18:50:37.580Z,89.32
2022-11-30T18:55:39.239Z,89.17
2022-11-30T19:00:41.158Z,90.48
2022-11-30T19:05:42.819Z,90.59
2022-11-30T19:10:44.507Z,88.81
2022-11-30T19:15:46.187Z,88.33
2022-11-30T19:20:47.857Z,87.05
2022-11-30T19:25:50.197Z,88.34
2022-11-30T19:30:51.911Z,89.24
2022-11-30T19:35:53.631Z,87.20
2022-11-30T19:40:55.425Z,86.63
2022-11-30T19:46:02.999Z,88.37
2022-11-30T19:51:13.405Z,89.09
2022-11-30T19:56:18.107Z,89.65
2022-11-30T20:01:25.399Z,90.48
2022-11-30T20:06:33.923Z,90.55
2022-11-30T20:11:35.797Z,90.93
2022-11-30T20:16:37.501Z,90.86
2022-11-30T20:21:39.235Z,91.54
2022-11-30T20:26:43.358Z,90.43
2022-11-30T20:31:47.164Z,91.41
2022-11-30T20:36:48.857Z,91.55
2022-11-30T20:41:50.519Z,91.33
2022-11-30T20:46:52.189Z,91.90
2022-11-30T20:51:54.037Z,91.88
2022-11-30T20:56:57.329Z,92.30
2022-11-30T21:01:59.037Z,92.77
2022-11-30T21:07:00.888Z,93.29
2022-11-30T21:12:02.593Z,92.60
2022-11-30T21:17:04.776Z,94.65
2022-11-30T21:22:06.505Z,97.43
2022-11-30T21:27:08.302Z,97.24
2022-11-30T21:32:10.085Z,97.53
2022-11-30T21:37:11.743Z,96.51
2022-11-30T21:42:13.395Z,96.47
2022-11-30T21:47:15.266Z,95.91
2022-11-30T21:52:16.995Z,95.58
2022-11-30T21:57:18.886Z,96.07
2022-11-30T22:02:20.604Z,95.83
2022-11-30T22:07:31.655Z,95.67
2022-11-30T22:12:33.402Z,95.75
2022-11-30T22:17:35.073Z,96.91
2022-11-30T22:22:36.753Z,98.83
2022-11-30T22:27:38.559Z,100.00
2022-11-30T22:32:43.477Z,100.00
2022-11-30T22:37:45.391Z,100.00
2022-11-30T22:42:47.064Z,100.00
2022-11-30T22:47:48.755Z,100.00
2022-11-30T22:53:05.164Z,100.00
2022-11-30T22:58:06.848Z,100.00
2022-11-30T23:03:08.609Z,100.00
2022-11-30T23:08:10.358Z,100.00
2022-11-30T23:13:12.138Z,100.00
2022-11-30T23:18:13.813Z,100.00
2022-11-30T23:23:15.552Z,100.00
2022-11-30T23:28:17.375Z,100.00
2022-11-30T23:33:19.078Z,100.00
2022-11-30T23:38:20.754Z,100.00
2022-11-30T23:43:22.461Z,100.00
2022-11-30T23:48:24.464Z,100.00
2022-11-30T23:53:26.693Z,100.00
2022-11-30T23:58:29.840Z,100.00
